createdAt,value
2023-09-11T00:00:29.484Z,25.02
2023-09-11T00:02:31.195Z,23.30
2023-09-11T00:04:32.775Z,24.60
2023-09-11T00:06:34.379Z,24.48
2023-09-11T00:08:36.051Z,24.42
2023-09-11T00:10:37.640Z,25.23
2023-09-11T00:12:39.290Z,24.88
2023-09-11T00:14:40.900Z,24.23
2023-09-11T00:16:43.196Z,23.33
2023-09-11T00:18:46.357Z,23.15
2023-09-11T00:20:48.108Z,23.33
2023-09-11T00:22:50.202Z,22.20
2023-09-11T00:24:51.790Z,20.77
2023-09-11T00:26:53.469Z,20.23
2023-09-11T00:28:55.366Z,21.33
2023-09-11T00:31:00.793Z,20.52
2023-09-11T00:33:02.484Z,18.80
2023-09-11T00:35:06.892Z,18.48
2023-09-11T00:37:08.546Z,19.38
2023-09-11T00:39:10.453Z,18.77
2023-09-11T00:41:12.039Z,19.88
2023-09-11T00:43:13.714Z,19.05
2023-09-11T00:45:15.267Z,18.42
2023-09-11T00:47:17.421Z,19.27
2023-09-11T00:49:21.482Z,21.70
2023-09-11T00:51:23.107Z,22.42
2023-09-11T00:53:26.036Z,22.92
2023-09-11T00:55:28.573Z,22.50
2023-09-11T00:57:30.256Z,23.92
2023-09-11T00:59:31.970Z,24.63
2023-09-11T01:01:33.865Z,27.33
2023-09-11T01:03:35.606Z,25.52
2023-09-11T01:05:37.596Z,23.45
2023-09-11T01:07:39.241Z,26.25
2023-09-11T01:09:41.677Z,25.73
2023-09-11T01:11:43.272Z,26.20
2023-09-11T01:13:44.875Z,26.35
2023-09-11T01:16:03.744Z,26.67
2023-09-11T01:18:16.929Z,27.65
2023-09-11T01:20:55.116Z,26.73
2023-09-11T01:23:17.691Z,24.75
2023-09-11T01:25:31.497Z,26.00
2023-09-11T01:27:54.837Z,30.10
2023-09-11T01:29:59.052Z,28.30
2023-09-11T01:32:03.671Z,25.67
2023-09-11T01:34:07.682Z,24.58
2023-09-11T01:36:09.347Z,25.58
2023-09-11T01:38:10.945Z,26.08
2023-09-11T01:40:12.592Z,27.33
2023-09-11T01:42:20.326Z,27.20
2023-09-11T01:44:27.815Z,26.20
2023-09-11T01:46:30.215Z,24.92
2023-09-11T01:48:33.802Z,23.67
2023-09-11T01:50:39.933Z,24.60
2023-09-11T01:52:42.902Z,22.73
2023-09-11T01:54:44.580Z,23.98
2023-09-11T01:56:46.632Z,25.50
2023-09-11T01:58:48.265Z,23.50
2023-09-11T02:00:49.870Z,24.52
2023-09-11T02:02:56.321Z,24.45
2023-09-11T02:04:58.062Z,23.73
2023-09-11T02:06:59.650Z,22.80
2023-09-11T02:09:01.318Z,22.48
2023-09-11T02:11:02.889Z,21.90
2023-09-11T02:13:04.731Z,22.60
2023-09-11T02:15:07.824Z,21.42
2023-09-11T02:17:09.393Z,23.50
2023-09-11T02:19:11.257Z,23.33
2023-09-11T02:21:12.915Z,22.75
2023-09-11T02:23:15.583Z,23.85
2023-09-11T02:25:18.632Z,24.88
2023-09-11T02:27:20.204Z,25.25
2023-09-11T02:29:21.838Z,24.70
2023-09-11T02:31:23.491Z,24.80
2023-09-11T02:33:25.192Z,23.00
2023-09-11T02:35:26.915Z,22.52
2023-09-11T02:37:29.072Z,21.60
2023-09-11T02:39:30.754Z,22.30
2023-09-11T02:41:32.370Z,22.85
2023-09-11T02:43:34.034Z,20.65
2023-09-11T02:45:35.613Z,21.17
2023-09-11T02:47:37.283Z,22.25
2023-09-11T02:49:38.969Z,22.45
2023-09-11T02:51:40.578Z,21.30
2023-09-11T02:53:42.245Z,19.90
2023-09-11T02:55:44.935Z,20.58
2023-09-11T02:57:46.532Z,19.58
2023-09-11T02:59:48.259Z,19.13
2023-09-11T03:01:49.882Z,18.52
2023-09-11T03:03:51.470Z,17.92
2023-09-11T03:06:01.479Z,18.33
2023-09-11T03:08:03.495Z,16.92
2023-09-11T03:10:05.400Z,17.35
2023-09-11T03:12:07.452Z,17.83
2023-09-11T03:14:13.094Z,19.83
2023-09-11T03:16:16.231Z,19.30
2023-09-11T03:18:17.985Z,18.98
2023-09-11T03:20:19.683Z,20.77
2023-09-11T03:22:21.258Z,19.98
2023-09-11T03:24:23.415Z,19.80
2023-09-11T03:26:25.161Z,19.65
2023-09-11T03:28:31.628Z,19.17
2023-09-11T03:30:35.278Z,19.40
2023-09-11T03:32:36.915Z,20.77
2023-09-11T03:34:38.626Z,20.95
2023-09-11T03:36:40.901Z,21.15
2023-09-11T03:38:42.871Z,21.35
2023-09-11T03:40:47.501Z,20.50
2023-09-11T03:42:49.211Z,20.90
2023-09-11T03:44:50.933Z,20.63
2023-09-11T03:46:52.590Z,22.13
2023-09-11T03:48:54.416Z,22.30
2023-09-11T03:50:57.226Z,22.67
2023-09-11T03:52:58.941Z,22.65
2023-09-11T03:55:00.625Z,22.98
2023-09-11T03:57:02.349Z,23.80
2023-09-11T03:59:04.251Z,25.83
2023-09-11T04:01:06.024Z,22.77
2023-09-11T04:03:07.956Z,22.25
2023-09-11T04:05:10.001Z,23.33
2023-09-11T04:07:11.584Z,22.10
2023-09-11T04:09:13.149Z,22.70
2023-09-11T04:11:14.732Z,24.77
2023-09-11T04:13:16.316Z,24.90
2023-09-11T04:15:17.904Z,23.92
2023-09-11T04:17:19.503Z,22.17
2023-09-11T04:19:21.200Z,23.48
2023-09-11T04:21:22.797Z,23.42
2023-09-11T04:23:24.405Z,22.92
2023-09-11T04:25:26.170Z,21.83
2023-09-11T04:27:27.980Z,21.60
2023-09-11T04:29:33.631Z,22.48
2023-09-11T04:31:35.378Z,20.65
2023-09-11T04:33:37.158Z,21.77
2023-09-11T04:35:38.801Z,71.72
2023-09-11T04:37:40.471Z,62.33
2023-09-11T04:39:42.139Z,30.58
2023-09-11T04:41:43.806Z,18.02
2023-09-11T04:43:46.585Z,13.02
2023-09-11T04:45:48.210Z,10.10
2023-09-11T04:47:49.887Z,7.75
2023-09-11T04:49:51.608Z,6.57
2023-09-11T04:51:53.671Z,6.40
2023-09-11T04:53:55.441Z,5.30
2023-09-11T04:55:57.876Z,6.20
2023-09-11T04:57:59.494Z,6.00
2023-09-11T05:00:01.365Z,5.97
2023-09-11T05:02:03.177Z,6.43
2023-09-11T05:04:05.213Z,7.40
2023-09-11T05:06:06.930Z,8.15
2023-09-11T05:08:09.043Z,7.88
2023-09-11T05:10:10.843Z,7.28
2023-09-11T05:12:12.515Z,7.40
2023-09-11T05:14:14.356Z,6.45
2023-09-11T05:16:18.690Z,8.07
2023-09-11T05:18:20.488Z,7.57
2023-09-11T05:20:22.140Z,6.95
2023-09-11T05:22:23.869Z,6.75
2023-09-11T05:24:25.524Z,7.95
2023-09-11T05:26:27.127Z,7.07
2023-09-11T05:28:28.847Z,7.50
2023-09-11T05:30:30.375Z,6.97
2023-09-11T05:32:34.121Z,6.90
2023-09-11T05:34:35.790Z,7.40
2023-09-11T05:36:37.351Z,7.60
2023-09-11T05:38:39.364Z,7.60
2023-09-11T05:40:41.323Z,7.68
2023-09-11T05:42:42.931Z,7.80
2023-09-11T05:44:45.083Z,8.25
2023-09-11T05:46:46.802Z,8.57
2023-09-11T05:48:48.539Z,7.85
2023-09-11T05:50:50.378Z,8.98
2023-09-11T05:52:52.032Z,9.70
2023-09-11T05:54:53.898Z,9.40
2023-09-11T05:56:55.549Z,9.55
2023-09-11T05:58:57.413Z,10.85
2023-09-11T06:00:59.021Z,11.25
2023-09-11T06:03:01.058Z,12.60
2023-09-11T06:05:03.308Z,12.65
2023-09-11T06:07:05.435Z,13.18
2023-09-11T06:09:09.533Z,11.93
2023-09-11T06:11:11.241Z,11.98
2023-09-11T06:13:12.873Z,11.50
2023-09-11T06:15:14.817Z,11.32
2023-09-11T06:17:17.677Z,11.07
2023-09-11T06:19:20.474Z,10.77
2023-09-11T06:21:22.229Z,12.10
2023-09-11T06:23:24.250Z,12.45
2023-09-11T06:25:26.034Z,12.95
2023-09-11T06:27:27.719Z,13.30
2023-09-11T06:29:29.296Z,12.23
2023-09-11T06:31:32.508Z,12.70
2023-09-11T06:33:34.247Z,14.00
2023-09-11T06:35:36.009Z,13.13
2023-09-11T06:37:38.756Z,12.25
2023-09-11T06:39:40.475Z,13.02
2023-09-11T06:41:42.327Z,11.40
2023-09-11T06:43:44.169Z,11.68
2023-09-11T06:45:45.776Z,11.90
2023-09-11T06:47:47.419Z,11.77
2023-09-11T06:49:49.310Z,11.52
2023-09-11T06:51:51.067Z,12.88
2023-09-11T06:53:54.631Z,11.90
2023-09-11T06:55:56.827Z,12.32
2023-09-11T06:58:00.598Z,11.90
2023-09-11T07:00:09.913Z,12.02
2023-09-11T07:02:11.564Z,11.85
2023-09-11T07:04:13.354Z,12.02
2023-09-11T07:06:15.026Z,11.73
2023-09-11T07:08:17.093Z,10.55
2023-09-11T07:10:34.123Z,11.02
2023-09-11T07:12:48.634Z,11.30
2023-09-11T07:14:50.415Z,11.38
2023-09-11T07:16:52.127Z,10.60
2023-09-11T07:18:53.837Z,9.93
2023-09-11T07:20:55.601Z,9.77
2023-09-11T07:22:57.548Z,10.10
2023-09-11T07:24:59.678Z,10.38
2023-09-11T07:27:01.480Z,10.55
2023-09-11T07:29:04.788Z,9.75
2023-09-11T07:31:06.590Z,9.95
2023-09-11T07:33:08.352Z,10.02
2023-09-11T07:35:10.089Z,9.65
2023-09-11T07:37:12.154Z,9.70
2023-09-11T07:39:13.830Z,9.35
2023-09-11T09:08:54.309Z,7.38
2023-09-11T09:10:56.147Z,8.13
2023-09-11T09:12:58.255Z,6.97
2023-09-11T09:15:00.135Z,6.10
2023-09-11T09:17:01.788Z,6.30
2023-09-11T09:19:03.647Z,6.25
2023-09-11T09:21:06.375Z,7.65
2023-09-11T09:23:08.094Z,8.48
2023-09-11T09:25:09.660Z,6.20
2023-09-11T09:27:11.307Z,7.18
2023-09-11T09:29:17.375Z,6.00
2023-09-11T09:31:26.501Z,5.55
2023-09-11T09:33:28.900Z,5.45
2023-09-11T09:35:32.760Z,6.50
2023-09-11T09:37:34.421Z,5.20
2023-09-11T09:39:42.109Z,5.90
2023-09-11T09:41:54.506Z,6.18
2023-09-11T09:43:56.210Z,10.55
2023-09-11T09:45:57.915Z,7.07
2023-09-11T09:48:13.771Z,6.60
2023-09-11T09:50:15.500Z,6.30
2023-09-11T09:52:21.311Z,5.78
2023-09-11T09:54:22.915Z,6.47
2023-09-11T09:56:24.692Z,9.45
2023-09-11T09:58:31.044Z,6.10
2023-09-11T10:00:32.746Z,6.35
2023-09-11T10:02:35.932Z,7.47
2023-09-11T10:04:38.371Z,5.45
2023-09-11T10:06:40.020Z,5.80
2023-09-11T10:08:43.011Z,5.07
2023-09-11T10:10:44.638Z,5.45
2023-09-11T10:12:46.215Z,5.32
2023-09-11T10:14:47.846Z,5.40
2023-09-11T10:16:50.188Z,11.50
2023-09-11T10:18:54.541Z,12.63
2023-09-11T10:20:56.337Z,6.13
2023-09-11T10:23:01.338Z,5.75
2023-09-11T10:25:02.940Z,6.88
2023-09-11T10:27:05.045Z,5.45
2023-09-11T10:29:13.063Z,6.55
2023-09-11T10:31:33.484Z,5.63
2023-09-11T10:33:37.679Z,6.15
2023-09-11T10:35:41.737Z,8.43
2023-09-11T10:37:44.913Z,7.20
2023-09-11T10:39:46.858Z,5.88
2023-09-11T10:41:48.679Z,4.95
2023-09-11T10:43:50.696Z,5.10
2023-09-11T10:45:52.607Z,5.13
2023-09-11T10:47:54.449Z,6.18
2023-09-11T10:49:59.655Z,5.25
2023-09-11T10:52:03.882Z,5.20
2023-09-11T10:54:08.305Z,5.15
2023-09-11T10:56:10.907Z,4.97
2023-09-11T10:58:13.306Z,5.03
2023-09-11T11:00:15.650Z,4.60
2023-09-11T11:02:22.748Z,5.30
2023-09-11T11:04:25.589Z,4.78
2023-09-11T11:06:27.222Z,5.13
2023-09-11T11:08:35.753Z,5.00
2023-09-11T11:10:41.263Z,6.03
2023-09-11T11:12:43.958Z,5.80
2023-09-11T11:15:24.979Z,5.32
2023-09-11T11:17:38.399Z,5.88
2023-09-11T11:19:46.897Z,5.18
2023-09-11T11:21:49.396Z,11.20
2023-09-11T11:23:57.440Z,5.80
2023-09-11T11:26:07.525Z,5.28
2023-09-11T11:28:22.513Z,5.20
2023-09-11T11:30:24.221Z,4.70
2023-09-11T11:32:27.088Z,4.53
2023-09-11T11:34:32.934Z,4.88
2023-09-11T11:36:35.244Z,5.70
2023-09-11T11:38:37.525Z,5.95
2023-09-11T11:40:39.468Z,8.57
2023-09-11T11:42:42.030Z,5.30
2023-09-11T11:44:43.650Z,5.00
2023-09-11T11:46:46.471Z,5.00
2023-09-11T11:48:48.321Z,5.10
2023-09-11T11:50:50.166Z,5.10
2023-09-11T11:52:51.752Z,9.52
2023-09-11T11:54:53.418Z,11.35
2023-09-11T11:56:56.536Z,5.38
2023-09-11T11:58:58.787Z,6.45
2023-09-11T12:01:05.922Z,5.07
2023-09-11T12:03:09.145Z,5.03
2023-09-11T12:05:15.634Z,4.78
2023-09-11T12:07:17.614Z,5.85
2023-09-11T12:09:20.119Z,5.32
2023-09-11T12:11:21.816Z,5.07
2023-09-11T12:13:38.891Z,5.95
2023-09-11T12:15:54.618Z,5.20
2023-09-11T12:20:19.177Z,5.25
2023-09-11T12:22:20.845Z,4.60
2023-09-11T12:24:22.456Z,5.10
2023-09-11T12:26:24.234Z,5.10
2023-09-11T12:28:27.007Z,4.68
2023-09-11T12:30:28.628Z,4.70
2023-09-11T12:32:31.260Z,5.32
2023-09-11T12:34:46.273Z,6.18
2023-09-11T12:36:47.932Z,6.05
2023-09-11T12:38:52.949Z,5.18
2023-09-11T12:40:58.003Z,5.60
2023-09-11T12:43:00.651Z,4.60
2023-09-11T12:45:02.376Z,5.03
2023-09-11T12:47:04.189Z,4.82
2023-09-11T12:49:06.087Z,5.35
2023-09-11T12:51:08.516Z,5.22
2023-09-11T12:53:10.733Z,5.15
2023-09-11T12:55:13.586Z,5.50
2023-09-11T12:57:19.506Z,5.35
2023-09-11T12:59:22.350Z,5.60
2023-09-11T13:01:25.179Z,5.68
2023-09-11T13:03:26.962Z,5.53
2023-09-11T13:05:29.780Z,5.85
2023-09-11T13:07:31.388Z,5.53
2023-09-11T13:09:34.411Z,5.30
2023-09-11T13:11:35.991Z,5.13
2023-09-11T13:13:38.247Z,5.32
2023-09-11T13:15:40.147Z,5.45
2023-09-11T13:17:43.012Z,5.65
2023-09-11T13:19:44.734Z,5.75
2023-09-11T13:21:46.494Z,5.90
2023-09-11T13:23:48.076Z,5.35
2023-09-11T13:25:50.093Z,5.88
2023-09-11T13:27:51.725Z,5.53
2023-09-11T13:29:57.081Z,6.68
2023-09-11T13:31:58.815Z,5.20
2023-09-11T13:34:00.553Z,5.68
2023-09-11T13:36:02.427Z,5.93
2023-09-11T13:38:04.317Z,5.95
2023-09-11T13:40:07.665Z,5.70
2023-09-11T13:42:09.649Z,5.60
2023-09-11T13:44:11.545Z,6.28
2023-09-11T13:46:13.252Z,6.28
2023-09-11T13:48:14.976Z,5.43
2023-09-11T13:50:16.634Z,6.05
2023-09-11T13:52:20.350Z,5.82
2023-09-11T13:54:22.923Z,6.65
2023-09-11T13:56:24.604Z,6.05
2023-09-11T13:58:26.231Z,5.78
2023-09-11T14:00:28.301Z,6.20
2023-09-11T14:02:29.912Z,6.03
2023-09-11T14:04:31.758Z,6.65
2023-09-11T14:06:33.979Z,6.63
2023-09-11T14:08:35.665Z,6.07
2023-09-11T14:10:37.241Z,5.90
2023-09-11T14:12:38.849Z,6.55
2023-09-11T14:14:40.507Z,5.93
2023-09-11T14:16:42.239Z,5.80
2023-09-11T14:18:44.272Z,6.53
2023-09-11T14:20:46.077Z,6.13
2023-09-11T14:22:49.052Z,5.90
2023-09-11T14:24:50.644Z,6.00
2023-09-11T14:26:52.242Z,6.47
2023-09-11T14:28:53.804Z,5.93
2023-09-11T14:30:55.440Z,5.88
2023-09-11T14:32:57.107Z,6.32
2023-09-11T14:34:58.787Z,6.15
2023-09-11T14:37:16.657Z,6.32
2023-09-11T14:39:18.969Z,5.95
2023-09-11T14:41:20.634Z,6.28
2023-09-11T14:43:22.220Z,5.85
2023-09-11T14:45:23.899Z,6.03
2023-09-11T14:47:25.523Z,6.57
2023-09-11T14:49:27.201Z,5.90
2023-09-11T14:51:28.951Z,6.43
2023-09-11T14:53:41.362Z,7.30
2023-09-11T14:55:43.123Z,6.28
2023-09-11T14:57:44.721Z,6.18
2023-09-11T14:59:46.331Z,6.30
2023-09-11T15:01:48.149Z,6.63
2023-09-11T15:03:50.144Z,6.50
2023-09-11T15:05:51.874Z,6.10
2023-09-11T15:07:53.484Z,6.43
2023-09-11T15:09:55.363Z,6.45
2023-09-11T15:11:56.995Z,6.18
2023-09-11T15:13:58.598Z,6.57
2023-09-11T15:16:00.278Z,6.55
2023-09-11T15:18:02.062Z,6.45
2023-09-11T15:20:04.254Z,6.85
2023-09-11T15:22:06.279Z,6.45
2023-09-11T15:24:08.395Z,7.18
2023-09-11T15:26:10.057Z,6.78
2023-09-11T15:28:11.886Z,7.20
2023-09-11T15:30:13.534Z,7.18
2023-09-11T15:32:15.298Z,6.00
2023-09-11T15:34:16.897Z,6.68
2023-09-11T15:36:18.795Z,6.55
2023-09-11T15:38:20.391Z,7.13
2023-09-11T15:40:22.132Z,6.93
2023-09-11T15:42:23.734Z,7.25
2023-09-11T15:44:25.380Z,7.35
2023-09-11T15:48:34.802Z,7.22
2023-09-11T15:50:36.575Z,7.30
2023-09-11T15:52:38.108Z,7.15
2023-09-11T15:54:39.735Z,7.70
2023-09-11T15:56:41.374Z,7.10
2023-09-11T15:58:44.491Z,7.25
2023-09-11T16:00:46.327Z,6.80
2023-09-11T16:02:48.017Z,7.47
2023-09-11T16:04:50.903Z,7.57
2023-09-11T16:06:53.601Z,8.57
2023-09-11T16:08:55.200Z,12.50
2023-09-11T16:10:56.866Z,15.05
2023-09-11T16:13:02.616Z,13.07
2023-09-11T16:15:06.412Z,10.18
2023-09-11T16:17:10.487Z,8.52
2023-09-11T16:19:12.041Z,8.63
2023-09-11T16:21:19.723Z,7.78
2023-09-11T16:23:31.339Z,8.32
2023-09-11T16:25:34.022Z,8.20
2023-09-11T16:27:36.088Z,8.70
2023-09-11T16:29:37.744Z,8.77
2023-09-11T16:31:40.212Z,9.55
2023-09-11T16:33:41.940Z,12.15
2023-09-11T16:35:43.689Z,16.95
2023-09-11T16:37:45.540Z,20.38
2023-09-11T16:39:47.116Z,26.50
2023-09-11T16:41:48.791Z,33.03
2023-09-11T16:43:50.535Z,27.30
2023-09-11T16:45:52.155Z,24.70
2023-09-11T16:47:54.227Z,23.40
2023-09-11T16:49:55.941Z,26.92
2023-09-11T16:51:57.496Z,30.55
2023-09-11T16:54:00.406Z,28.33
2023-09-11T16:56:02.115Z,28.52
2023-09-11T16:58:03.939Z,30.77
2023-09-11T17:00:06.884Z,28.25
2023-09-11T17:02:08.522Z,28.52
2023-09-11T17:04:10.212Z,30.58
2023-09-11T17:06:11.868Z,25.65
2023-09-11T17:08:13.450Z,26.90
2023-09-11T17:10:15.059Z,26.92
2023-09-11T17:12:18.387Z,26.50
2023-09-11T17:14:20.070Z,27.15
2023-09-11T17:16:23.040Z,26.13
2023-09-11T17:18:24.841Z,24.90
2023-09-11T17:20:26.510Z,26.00
2023-09-11T17:22:29.163Z,22.27
2023-09-11T17:24:31.018Z,18.73
2023-09-11T17:26:33.035Z,20.52
2023-09-11T17:28:35.176Z,22.00
2023-09-11T17:30:37.002Z,35.78
2023-09-11T17:32:40.666Z,31.70
2023-09-11T17:34:43.074Z,27.92
2023-09-11T17:36:44.679Z,32.83
2023-09-11T17:38:46.989Z,21.38
2023-09-11T17:40:48.648Z,27.65
2023-09-11T17:42:50.199Z,24.40
2023-09-11T17:44:51.784Z,20.08
2023-09-11T17:46:53.489Z,17.35
2023-09-11T17:48:55.260Z,15.52
2023-09-11T17:50:56.940Z,15.20
2023-09-11T17:52:58.560Z,15.13
2023-09-11T17:55:00.137Z,16.55
2023-09-11T17:57:01.904Z,21.80
2023-09-11T17:59:03.568Z,26.55
2023-09-11T18:01:05.198Z,22.73
2023-09-11T18:03:07.474Z,19.35
2023-09-11T18:05:09.328Z,15.88
2023-09-11T18:07:10.895Z,20.20
2023-09-11T18:09:12.570Z,19.75
2023-09-11T18:11:14.238Z,21.48
2023-09-11T18:13:17.791Z,16.20
2023-09-11T18:15:19.396Z,16.65
2023-09-11T18:17:20.994Z,23.77
2023-09-11T18:19:22.565Z,37.63
2023-09-11T18:21:24.180Z,77.60
2023-09-11T18:23:26.322Z,61.65
2023-09-11T18:25:27.938Z,41.15
2023-09-11T18:27:30.034Z,31.83
2023-09-11T18:29:31.738Z,28.27
2023-09-11T18:31:33.366Z,20.65
2023-09-11T18:33:35.176Z,19.27
2023-09-11T18:35:37.078Z,17.88
2023-09-11T18:37:38.797Z,16.88
2023-09-11T18:39:40.381Z,16.90
2023-09-11T18:41:42.057Z,20.58
2023-09-11T18:43:43.776Z,18.75
2023-09-11T18:45:45.436Z,17.60
2023-09-11T18:47:48.953Z,17.92
2023-09-11T18:49:50.556Z,18.00
2023-09-11T18:51:54.026Z,18.60
2023-09-11T18:53:56.236Z,21.42
2023-09-11T18:55:57.813Z,23.92
2023-09-11T18:57:59.418Z,22.05
2023-09-11T19:00:01.030Z,22.73
2023-09-11T19:02:03.034Z,20.42
2023-09-11T19:04:05.391Z,20.67
2023-09-11T19:06:07.542Z,20.13
2023-09-11T19:08:09.158Z,20.42
2023-09-11T19:10:11.806Z,21.23
2023-09-11T19:12:13.660Z,22.15
2023-09-11T19:14:15.349Z,20.52
2023-09-11T19:16:18.242Z,20.77
2023-09-11T19:18:19.977Z,21.75
2023-09-11T19:20:21.611Z,20.63
2023-09-11T19:22:24.973Z,20.85
2023-09-11T19:24:26.665Z,21.10
2023-09-11T19:26:28.398Z,21.77
2023-09-11T19:28:30.504Z,29.15
2023-09-11T19:30:37.279Z,27.67
2023-09-11T19:32:39.163Z,43.17
2023-09-11T19:34:40.777Z,79.20
2023-09-11T19:36:42.371Z,60.42
2023-09-11T19:38:45.523Z,278.48
2023-09-11T19:40:47.441Z,40.80
2023-09-11T19:42:49.032Z,30.30
2023-09-11T19:44:50.756Z,27.38
2023-09-11T19:46:55.290Z,39.75
2023-09-11T19:48:56.948Z,48.17
2023-09-11T19:50:59.146Z,22.63
2023-09-11T19:53:00.789Z,25.38
2023-09-11T19:55:02.388Z,21.30
2023-09-11T19:57:05.123Z,20.65
2023-09-11T19:59:08.691Z,20.60
2023-09-11T20:01:10.263Z,23.05
2023-09-11T20:03:11.928Z,27.00
2023-09-11T20:05:14.533Z,22.63
2023-09-11T20:07:16.159Z,22.30
2023-09-11T20:09:18.378Z,23.60
2023-09-11T20:11:19.950Z,22.90
2023-09-11T20:13:26.320Z,22.90
2023-09-11T20:15:27.993Z,37.63
2023-09-11T20:17:29.637Z,30.30
2023-09-11T20:19:31.240Z,25.80
2023-09-11T20:21:32.824Z,24.58
2023-09-11T20:23:34.398Z,22.83
2023-09-11T20:25:36.106Z,24.38
2023-09-11T20:27:37.693Z,25.10
2023-09-11T20:29:39.260Z,26.92
2023-09-11T20:31:40.921Z,26.95
2023-09-11T20:33:43.549Z,26.58
2023-09-11T20:35:45.200Z,28.33
2023-09-11T20:37:46.800Z,30.88
2023-09-11T20:39:48.363Z,31.90
2023-09-11T20:41:49.929Z,30.50
2023-09-11T20:43:51.589Z,34.28
2023-09-11T20:45:53.181Z,30.60
2023-09-11T20:47:54.861Z,35.72
2023-09-11T20:49:56.550Z,32.10
2023-09-11T20:51:58.143Z,30.48
2023-09-11T20:53:59.749Z,31.05
2023-09-11T20:56:03.649Z,29.73
2023-09-11T20:58:05.697Z,31.75
2023-09-11T21:00:11.707Z,29.52
2023-09-11T21:02:14.844Z,29.33
2023-09-11T21:04:16.558Z,29.58
2023-09-11T21:06:18.425Z,30.15
2023-09-11T21:08:20.039Z,28.70
2023-09-11T21:10:21.628Z,29.65
2023-09-11T21:12:23.336Z,31.23
2023-09-11T21:14:24.931Z,32.20
2023-09-11T21:16:26.755Z,33.67
2023-09-11T21:18:28.373Z,32.83
2023-09-11T21:20:29.976Z,32.28
2023-09-11T21:22:31.531Z,35.72
2023-09-11T21:24:33.147Z,39.30
2023-09-11T21:26:34.945Z,33.08
2023-09-11T21:28:37.532Z,32.85
2023-09-11T21:30:39.172Z,32.45
2023-09-11T21:32:40.858Z,32.17
2023-09-11T21:34:42.435Z,31.80
2023-09-11T21:36:44.482Z,32.57
2023-09-11T21:38:46.061Z,33.20
2023-09-11T21:40:47.713Z,32.58
2023-09-11T21:42:49.278Z,31.52
2023-09-11T21:44:51.172Z,31.88
2023-09-11T21:46:52.813Z,31.80
2023-09-11T21:48:54.451Z,31.85
2023-09-11T21:50:56.066Z,35.63
2023-09-11T21:52:57.620Z,33.75
2023-09-11T21:54:59.223Z,34.95
2023-09-11T21:57:05.676Z,33.03
2023-09-11T21:59:07.406Z,29.38
2023-09-11T22:01:09.079Z,33.00
2023-09-11T22:03:10.742Z,31.92
2023-09-11T22:05:12.529Z,31.27
2023-09-11T22:07:14.983Z,33.08
2023-09-11T22:09:16.781Z,32.55
2023-09-11T22:11:21.619Z,32.65
2023-09-11T22:13:23.230Z,33.38
2023-09-11T22:15:24.869Z,33.00
2023-09-11T22:17:29.261Z,34.42
2023-09-11T22:19:30.933Z,33.88
2023-09-11T22:21:32.912Z,34.13
2023-09-11T22:23:34.792Z,37.05
2023-09-11T22:25:36.347Z,35.28
2023-09-11T22:27:37.949Z,35.17
2023-09-11T22:29:39.528Z,34.55
2023-09-11T22:31:41.212Z,34.33
2023-09-11T22:33:43.021Z,33.92
2023-09-11T22:35:53.990Z,36.30
2023-09-11T22:37:56.228Z,39.25
2023-09-11T22:39:57.819Z,37.80
2023-09-11T22:41:59.469Z,34.88
2023-09-11T22:44:01.079Z,33.47
2023-09-11T22:46:06.762Z,35.10
2023-09-11T22:48:08.635Z,37.28
2023-09-11T22:50:10.627Z,36.88
2023-09-11T22:52:12.182Z,36.20
2023-09-11T22:54:13.815Z,35.35
2023-09-11T22:56:15.376Z,36.58
2023-09-11T22:58:16.938Z,37.53
2023-09-11T23:00:18.766Z,36.50
2023-09-11T23:02:20.672Z,36.45
2023-09-11T23:04:22.497Z,36.55
2023-09-11T23:06:24.430Z,35.15
2023-09-11T23:08:26.011Z,34.58
2023-09-11T23:10:28.949Z,35.58
2023-09-11T23:12:30.590Z,33.45
2023-09-11T23:14:32.270Z,33.00
2023-09-11T23:16:33.937Z,31.73
2023-09-11T23:18:35.614Z,32.63
2023-09-11T23:20:37.238Z,33.05
2023-09-11T23:22:39.912Z,32.13
2023-09-11T23:24:41.466Z,32.97
2023-09-11T23:26:44.049Z,31.02
2023-09-11T23:28:45.956Z,31.80
2023-09-11T23:30:47.770Z,30.65
2023-09-11T23:32:49.459Z,30.42
2023-09-11T23:34:51.038Z,33.42
2023-09-11T23:36:52.604Z,32.25
2023-09-11T23:42:59.375Z,32.60
2023-09-11T23:47:02.427Z,32.70
2023-09-11T23:49:04.924Z,34.22
2023-09-11T23:51:06.527Z,33.20
2023-09-11T23:53:08.211Z,35.35
2023-09-11T23:55:11.000Z,35.28
2023-09-11T23:57:12.661Z,34.90
2023-09-11T23:59:16.194Z,32.33
